createdAt,value
2019-02-25T00:04:40.530Z,10.20
2019-02-25T00:09:44.487Z,10.00
2019-02-25T00:14:48.445Z,10.00
2019-02-25T00:19:52.431Z,10.00
2019-02-25T00:24:56.325Z,10.20
2019-02-25T00:30:00.347Z,10.00
2019-02-25T00:35:04.580Z,10.20
2019-02-25T00:40:09.955Z,10.20
2019-02-25T00:45:14.046Z,10.20
2019-02-25T00:50:18.108Z,10.10
2019-02-25T00:55:22.143Z,10.10
2019-02-25T01:00:26.818Z,10.00
2019-02-25T01:05:30.905Z,10.10
2019-02-25T01:10:34.988Z,10.00
2019-02-25T01:15:39.010Z,9.80
2019-02-25T01:20:43.027Z,10.10
2019-02-25T01:25:46.993Z,10.20
2019-02-25T01:30:51.015Z,10.10
2019-02-25T01:35:55.041Z,10.10
2019-02-25T01:40:58.935Z,9.90
2019-02-25T01:46:02.963Z,9.60
2019-02-25T01:51:06.995Z,9.90
2019-02-25T01:56:10.947Z,9.90
2019-02-25T02:01:14.975Z,9.70
2019-02-25T02:06:19.027Z,9.80
2019-02-25T02:11:23.055Z,9.60
2019-02-25T02:16:26.942Z,9.90
2019-02-25T02:21:30.927Z,9.90
2019-02-25T02:26:34.875Z,9.90
2019-02-25T02:31:38.834Z,9.70
2019-02-25T02:36:42.778Z,9.70
2019-02-25T02:42:17.775Z,9.60
2019-02-25T02:47:31.671Z,9.70
2019-02-25T02:52:35.555Z,9.90
2019-02-25T02:57:39.511Z,9.50
2019-02-25T03:02:43.575Z,9.70
2019-02-25T03:07:47.840Z,9.30
2019-02-25T03:12:51.831Z,9.70
2019-02-25T03:17:55.812Z,9.50
2019-02-25T03:22:59.812Z,9.50
2019-02-25T03:28:03.883Z,9.20
2019-02-25T03:33:07.940Z,9.50
2019-02-25T03:38:11.930Z,9.30
2019-02-25T03:43:15.931Z,9.20
2019-02-25T03:48:19.909Z,9.20
2019-02-25T03:53:23.903Z,9.50
2019-02-25T03:58:27.993Z,9.20
2019-02-25T04:03:32.095Z,9.50
2019-02-25T04:08:36.155Z,9.40
2019-02-25T04:13:40.136Z,9.60
2019-02-25T04:18:44.139Z,9.20
2019-02-25T04:23:48.058Z,9.50
2019-02-25T04:28:51.967Z,9.20
2019-02-25T04:33:55.887Z,9.20
2019-02-25T04:38:59.875Z,9.00
2019-02-25T04:44:03.861Z,9.30
2019-02-25T04:49:07.924Z,9.20
2019-02-25T04:54:11.929Z,9.30
2019-02-25T04:59:15.904Z,9.00
2019-02-25T05:04:19.962Z,9.20
2019-02-25T05:09:24.022Z,8.90
2019-02-25T05:14:28.080Z,8.90
2019-02-25T05:19:32.051Z,8.90
2019-02-25T05:24:36.031Z,8.90
2019-02-25T05:29:40.086Z,8.90
2019-02-25T05:34:44.091Z,8.90
2019-02-25T05:39:48.003Z,9.00
2019-02-25T05:44:51.930Z,8.90
2019-02-25T05:49:55.931Z,8.80
2019-02-25T05:54:59.855Z,9.00
2019-02-25T06:00:04.703Z,8.90
2019-02-25T06:05:08.760Z,9.00
2019-02-25T06:10:12.955Z,9.10
2019-02-25T06:15:17.045Z,9.00
2019-02-25T06:20:21.135Z,8.90
2019-02-25T06:25:25.253Z,8.90
2019-02-25T06:30:29.472Z,9.00
2019-02-25T06:35:33.535Z,8.90
2019-02-25T06:40:37.527Z,8.80
2019-02-25T06:45:41.583Z,9.20
2019-02-25T06:50:45.569Z,8.70
2019-02-25T06:55:49.627Z,8.90
2019-02-25T07:00:53.699Z,8.90
2019-02-25T07:06:05.378Z,8.60
2019-02-25T07:11:31.555Z,8.90
2019-02-25T07:17:03.878Z,8.80
2019-02-25T07:22:28.280Z,8.80
2019-02-25T07:27:57.512Z,8.80
2019-02-25T07:33:16.662Z,8.80
2019-02-25T07:38:54.831Z,8.60
2019-02-25T07:44:16.652Z,8.70
2019-02-25T07:49:27.103Z,8.90
2019-02-25T07:54:48.991Z,8.60
2019-02-25T08:00:16.015Z,8.60
2019-02-25T08:05:45.418Z,8.70
2019-02-25T08:11:17.820Z,8.60
2019-02-25T08:16:37.931Z,8.50
2019-02-25T08:22:19.203Z,8.80
2019-02-25T08:27:38.660Z,8.70
2019-02-25T08:32:55.543Z,8.70
2019-02-25T08:38:17.306Z,8.60
2019-02-25T08:43:58.812Z,8.70
2019-02-25T08:49:15.027Z,8.60
2019-02-25T08:54:19.114Z,8.70
2019-02-25T08:59:23.175Z,8.60
2019-02-25T09:04:27.260Z,8.70
2019-02-25T09:09:31.319Z,8.60
2019-02-25T09:14:35.390Z,8.70
2019-02-25T09:19:39.386Z,8.60
2019-02-25T09:24:43.459Z,8.60
2019-02-25T09:29:47.519Z,8.80
2019-02-25T09:34:51.509Z,8.70
2019-02-25T09:39:55.427Z,9.10
2019-02-25T09:44:59.412Z,8.90
2019-02-25T09:50:03.477Z,8.90
2019-02-25T09:55:08.863Z,9.00
2019-02-25T10:00:15.111Z,9.20
2019-02-25T10:05:19.188Z,8.90
2019-02-25T10:10:23.323Z,9.50
2019-02-25T10:15:27.348Z,9.30
2019-02-25T10:20:31.327Z,9.30
2019-02-25T10:25:35.416Z,9.20
2019-02-25T10:30:39.471Z,9.50
2019-02-25T10:35:43.538Z,9.90
2019-02-25T10:40:49.505Z,9.60
2019-02-25T10:45:53.231Z,10.10
2019-02-25T10:50:57.267Z,9.60
2019-02-25T10:56:14.849Z,10.20
2019-02-25T11:01:22.210Z,10.20
2019-02-25T11:06:27.348Z,10.20
2019-02-25T11:11:34.339Z,10.20
2019-02-25T11:16:38.471Z,10.20
2019-02-25T11:21:44.182Z,10.50
2019-02-25T11:26:48.479Z,10.50
2019-02-25T11:31:53.617Z,10.50
2019-02-25T11:36:59.511Z,10.50
2019-02-25T11:42:05.525Z,10.80
2019-02-25T11:47:09.576Z,10.40
2019-02-25T11:52:14.519Z,10.90
2019-02-25T11:57:18.507Z,10.70
2019-02-25T12:02:25.896Z,10.90
2019-02-25T12:07:29.367Z,11.00
2019-02-25T12:12:33.449Z,10.90
2019-02-25T12:17:37.771Z,11.10
2019-02-25T12:22:41.843Z,10.90
2019-02-25T12:27:45.902Z,11.10
2019-02-25T12:32:49.903Z,11.10
2019-02-25T12:37:53.979Z,11.20
2019-02-25T12:42:57.899Z,11.10
2019-02-25T12:48:01.879Z,11.20
2019-02-25T12:53:05.968Z,11.30
2019-02-25T12:58:09.875Z,11.20
2019-02-25T13:03:13.967Z,11.20
2019-02-25T13:08:18.059Z,11.10
2019-02-25T13:13:21.967Z,11.20
2019-02-25T13:18:25.911Z,11.60
2019-02-25T13:23:29.895Z,11.70
2019-02-25T13:28:34.156Z,11.50
2019-02-25T13:33:38.267Z,11.50
2019-02-25T13:38:42.253Z,11.60
2019-02-25T13:43:46.336Z,11.70
2019-02-25T13:48:50.309Z,11.50
2019-02-25T13:53:54.205Z,11.50
2019-02-25T13:58:58.197Z,11.70
2019-02-25T14:04:02.362Z,11.60
2019-02-25T14:09:09.054Z,11.50
2019-02-25T14:14:13.094Z,11.60
2019-02-25T14:19:17.130Z,11.70
2019-02-25T14:24:21.771Z,12.20
2019-02-25T14:29:26.465Z,11.90
2019-02-25T14:34:30.771Z,11.80
2019-02-25T14:39:36.049Z,11.90
2019-02-25T14:44:43.323Z,12.20
2019-02-25T14:49:46.579Z,11.90
2019-02-25T14:54:50.708Z,11.90
2019-02-25T14:59:54.762Z,12.20
2019-02-25T15:04:58.839Z,11.90
2019-02-25T15:10:04.541Z,12.10
2019-02-25T15:15:10.529Z,12.00
2019-02-25T15:20:16.509Z,12.00
2019-02-25T15:25:20.918Z,11.90
2019-02-25T15:30:27.455Z,12.00
2019-02-25T15:35:32.311Z,12.10
2019-02-25T15:40:36.894Z,12.00
2019-02-25T15:45:42.525Z,11.90
2019-02-25T15:50:48.495Z,11.90
2019-02-25T15:55:52.587Z,12.20
2019-02-25T16:00:56.842Z,12.00
2019-02-25T16:06:03.886Z,11.90
2019-02-25T16:11:07.463Z,11.80
2019-02-25T16:16:11.800Z,11.90
2019-02-25T16:21:15.767Z,11.90
2019-02-25T16:26:20.157Z,12.20
2019-02-25T16:31:26.000Z,12.10
2019-02-25T16:36:31.103Z,11.90
2019-02-25T16:41:36.620Z,11.90
2019-02-25T16:46:43.547Z,11.90
2019-02-25T16:51:47.466Z,12.10
2019-02-25T16:56:51.586Z,11.90
2019-02-25T17:01:57.890Z,12.20
2019-02-25T17:07:01.523Z,11.60
2019-02-25T17:12:06.839Z,12.00
2019-02-25T17:17:11.755Z,11.90
2019-02-25T17:22:15.752Z,11.90
2019-02-25T17:27:20.057Z,11.90
2019-02-25T17:32:25.482Z,11.60
2019-02-25T17:37:31.440Z,11.60
2019-02-25T17:42:35.423Z,11.60
2019-02-25T17:47:40.238Z,11.60
2019-02-25T17:52:46.752Z,11.70
2019-02-25T17:57:52.012Z,11.60
2019-02-25T18:02:57.634Z,11.60
2019-02-25T18:08:03.382Z,11.60
2019-02-25T18:13:10.443Z,11.60
2019-02-25T18:18:15.175Z,11.60
2019-02-25T18:23:21.687Z,11.50
2019-02-25T18:28:25.551Z,11.50
2019-02-25T18:33:29.975Z,11.60
2019-02-25T18:38:34.327Z,11.50
2019-02-25T18:43:38.647Z,11.50
2019-02-25T18:48:44.540Z,11.60
2019-02-25T18:53:48.570Z,11.50
2019-02-25T18:58:53.792Z,11.50
2019-02-25T19:03:59.067Z,11.40
2019-02-25T19:09:03.538Z,11.50
2019-02-25T19:14:07.705Z,11.40
2019-02-25T19:19:12.509Z,11.60
2019-02-25T19:24:18.742Z,11.50
2019-02-25T19:29:23.813Z,11.60
2019-02-25T19:34:28.767Z,11.20
2019-02-25T19:39:33.643Z,11.30
2019-02-25T19:44:38.611Z,11.50
2019-02-25T19:49:43.643Z,11.60
2019-02-25T19:54:50.307Z,11.20
2019-02-25T19:59:56.134Z,11.30
2019-02-25T20:04:59.716Z,11.00
2019-02-25T20:10:03.773Z,11.10
2019-02-25T20:15:11.334Z,11.20
2019-02-25T20:20:16.685Z,11.10
2019-02-25T20:25:21.779Z,11.20
2019-02-25T20:30:28.319Z,11.00
2019-02-25T20:35:32.487Z,11.10
2019-02-25T20:40:36.550Z,10.90
2019-02-25T20:45:40.623Z,10.90
2019-02-25T20:50:45.029Z,11.10
2019-02-25T20:55:50.700Z,10.90
2019-02-25T21:00:54.979Z,10.90
2019-02-25T21:05:58.967Z,10.80
2019-02-25T21:11:08.600Z,10.90
2019-02-25T21:16:10.512Z,10.90
2019-02-25T21:21:16.133Z,10.80
2019-02-25T21:26:20.266Z,10.80
2019-02-25T21:31:26.476Z,10.70
2019-02-25T21:36:31.739Z,10.90
2019-02-25T21:41:37.450Z,10.90
2019-02-25T21:46:41.716Z,10.90
2019-02-25T21:51:48.020Z,10.90
2019-02-25T21:56:51.535Z,10.90
2019-02-25T22:01:57.273Z,10.80
2019-02-25T22:07:02.573Z,10.90
2019-02-25T22:12:06.719Z,10.70
2019-02-25T22:17:12.813Z,10.80
2019-02-25T22:22:16.537Z,10.80
2019-02-25T22:27:21.239Z,10.90
2019-02-25T22:32:26.393Z,10.70
2019-02-25T22:37:30.463Z,10.70
2019-02-25T22:42:35.547Z,10.80
2019-02-25T22:47:39.603Z,10.80
2019-02-25T22:52:43.662Z,10.60
2019-02-25T22:57:50.964Z,10.80
2019-02-25T23:02:54.610Z,10.60
2019-02-25T23:07:59.355Z,10.60
2019-02-25T23:13:03.459Z,10.30
2019-02-25T23:18:10.073Z,10.50
2019-02-25T23:23:13.242Z,10.40
2019-02-25T23:28:18.529Z,10.70
2019-02-25T23:33:24.619Z,10.50
2019-02-25T23:38:28.779Z,10.60
2019-02-25T23:43:36.022Z,10.30
2019-02-25T23:48:41.118Z,10.60
2019-02-25T23:53:44.342Z,10.40
2019-02-25T23:58:50.045Z,10.50
